createdAt,value
2023-03-24T00:04:00.689Z,99321.00
2023-03-24T00:14:00.884Z,99312.00
2023-03-24T00:24:01.568Z,99302.00
2023-03-24T00:34:02.583Z,99282.00
2023-03-24T00:44:05.497Z,99265.00
2023-03-24T00:54:05.886Z,99243.00
2023-03-24T01:04:06.332Z,99225.00
2023-03-24T01:14:06.932Z,99211.00
2023-03-24T01:24:07.287Z,99205.00
2023-03-24T01:34:07.236Z,99199.00
2023-03-24T01:44:07.043Z,99186.00
2023-03-24T01:54:07.206Z,99172.00
2023-03-24T02:04:08.896Z,99148.00
2023-03-24T02:14:09.605Z,99127.00
2023-03-24T02:24:10.139Z,99103.00
2023-03-24T02:34:10.969Z,99084.00
2023-03-24T02:44:11.759Z,99072.00
2023-03-24T02:54:12.452Z,99066.00
2023-03-24T03:04:12.226Z,99060.00
2023-03-24T03:14:12.168Z,99058.00
2023-03-24T03:24:12.157Z,99056.00
2023-03-24T03:34:12.173Z,99056.00
2023-03-24T03:44:12.398Z,99048.00
2023-03-24T03:54:12.517Z,99050.00
2023-03-24T04:04:21.155Z,99058.00
2023-03-24T04:14:23.099Z,99060.00
2023-03-24T04:24:27.580Z,99060.00
2023-03-24T04:34:30.067Z,99076.00
2023-03-24T04:44:49.143Z,99096.00
2023-03-24T04:54:49.495Z,99123.00
2023-03-24T05:04:51.165Z,99150.00
2023-03-24T05:14:51.494Z,99168.00
2023-03-24T05:24:51.497Z,99190.00
2023-03-24T05:34:53.232Z,99209.00
2023-03-24T05:44:55.193Z,99257.00
2023-03-24T05:54:57.185Z,99278.00
2023-03-24T06:04:57.782Z,99304.00
2023-03-24T06:14:58.431Z,99319.00
2023-03-24T06:24:58.666Z,99345.00
2023-03-24T06:35:06.452Z,99355.00
2023-03-24T06:45:06.827Z,99365.00
2023-03-24T06:55:07.998Z,99374.00
2023-03-24T07:05:16.278Z,99398.00
2023-03-24T07:15:16.912Z,99404.00
2023-03-24T07:25:27.644Z,99406.00
2023-03-24T07:35:27.584Z,99420.00
2023-03-24T07:45:28.188Z,99423.00
2023-03-24T07:55:30.317Z,99433.00
2023-03-24T08:05:35.410Z,99441.00
2023-03-24T08:15:39.341Z,99451.00
2023-03-24T08:25:39.464Z,99449.00
2023-03-24T08:35:40.374Z,99457.00
2023-03-24T08:45:40.631Z,99457.00
2023-03-24T08:55:42.863Z,99453.00
2023-03-24T09:05:44.704Z,99453.00
2023-03-24T09:15:44.604Z,99455.00
2023-03-24T09:25:44.685Z,99463.00
2023-03-24T09:35:44.673Z,99467.00
2023-03-24T09:45:44.752Z,99457.00
2023-03-24T09:55:44.730Z,99465.00
2023-03-24T10:05:44.962Z,99474.00
2023-03-24T10:15:44.654Z,99490.00
2023-03-24T10:25:44.669Z,99502.00
2023-03-24T10:35:45.032Z,99504.00
2023-03-24T10:45:44.824Z,99504.00
2023-03-24T10:55:44.920Z,99502.00
2023-03-24T11:05:45.023Z,99504.00
2023-03-24T11:15:44.722Z,99514.00
2023-03-24T11:25:44.735Z,99506.00
2023-03-24T11:35:46.469Z,99506.00
2023-03-24T11:45:46.949Z,99524.00
2023-03-24T11:55:48.006Z,99526.00
2023-03-24T12:05:50.791Z,99522.00
2023-03-24T12:15:51.326Z,99514.00
2023-03-24T12:25:51.906Z,99500.00
2023-03-24T12:35:52.120Z,99490.00
2023-03-24T12:45:52.861Z,99480.00
2023-03-24T12:55:55.983Z,99470.00
2023-03-24T13:06:04.496Z,99470.00
2023-03-24T13:15:57.963Z,99467.00
2023-03-24T13:25:57.920Z,99468.00
2023-03-24T13:35:58.178Z,99465.00
2023-03-24T13:45:58.106Z,99463.00
2023-03-24T13:55:58.454Z,99443.00
2023-03-24T14:05:59.029Z,99441.00
2023-03-24T14:15:59.092Z,99445.00
2023-03-24T14:25:59.059Z,99439.00
2023-03-24T14:36:01.092Z,99443.00
2023-03-24T14:46:07.282Z,99449.00
2023-03-24T14:56:07.520Z,99443.00
2023-03-24T15:06:08.213Z,99447.00
2023-03-24T15:16:08.216Z,99443.00
2023-03-24T15:26:08.176Z,99441.00
2023-03-24T15:36:08.137Z,99425.00
2023-03-24T15:46:12.655Z,99414.00
2023-03-24T15:56:15.098Z,99423.00
2023-03-24T16:06:15.795Z,99441.00
2023-03-24T16:16:16.403Z,99453.00
2023-03-24T16:26:16.284Z,99476.00
2023-03-24T16:36:17.087Z,99492.00
2023-03-24T16:46:17.350Z,99504.00
2023-03-24T16:56:17.181Z,99516.00
2023-03-24T17:06:17.295Z,99502.00
2023-03-24T17:16:22.433Z,99504.00
2023-03-24T17:26:22.446Z,99520.00
2023-03-24T17:36:22.569Z,99518.00
2023-03-24T17:46:22.528Z,99524.00
2023-03-24T17:56:22.504Z,99524.00
2023-03-24T18:06:22.448Z,99526.00
2023-03-24T18:16:22.582Z,99528.00
2023-03-24T18:26:22.889Z,99528.00
2023-03-24T18:36:26.013Z,99524.00
2023-03-24T18:46:26.779Z,99528.00
2023-03-24T18:56:27.502Z,99524.00
2023-03-24T19:06:29.889Z,99524.00
2023-03-24T19:16:30.657Z,99514.00
2023-03-24T19:26:30.406Z,99498.00
2023-03-24T19:36:30.517Z,99504.00
2023-03-24T19:46:30.591Z,99506.00
2023-03-24T19:56:30.527Z,99520.00
2023-03-24T20:06:30.548Z,99524.00
2023-03-24T20:16:30.723Z,99524.00
2023-03-24T20:26:30.780Z,99518.00
2023-03-24T20:36:31.904Z,99506.00
2023-03-24T20:46:32.883Z,99514.00
2023-03-24T20:56:34.342Z,99502.00
2023-03-24T21:06:34.669Z,99500.00
2023-03-24T21:16:36.587Z,99514.00
2023-03-24T21:26:36.637Z,99514.00
2023-03-24T21:36:38.023Z,99506.00
2023-03-24T21:46:38.653Z,99498.00
2023-03-24T21:56:39.122Z,99496.00
2023-03-24T22:06:39.648Z,99498.00
2023-03-24T22:16:40.061Z,99500.00
2023-03-24T22:26:40.770Z,99506.00
2023-03-24T22:36:40.772Z,99514.00
2023-03-24T22:46:40.735Z,99522.00
2023-03-24T22:56:40.811Z,99532.00
2023-03-24T23:06:40.946Z,99536.00
2023-03-24T23:16:42.766Z,99532.00
2023-03-24T23:26:42.940Z,99538.00
2023-03-24T23:36:45.309Z,99547.00
2023-03-24T23:46:45.798Z,99549.00
2023-03-24T23:56:50.774Z,99557.00
